MRBN weather

Bataan (Monte Libano) Airport
Limón, Limon, Costa Rica

Public forecast

Using degrees Celsius for public forecast. Weather courtesy of forecast.io.

Closest aviation weather report (METAR) to Bataan (Monte Libano) Airport

Report is more than 6 hours old.

Closest report is Limon International Airport, 19.0 nm (35.1 km) ESE. Retrieved 2020/06/04 00:00 UTC (11 hours ago):

MRLM 040000Z 03004KT CAVOK 27/25 A2979

Closest aviation forecast (TAF) to Bataan (Monte Libano) Airport

Closest forecast is Limon International Airport, 19.0 nm (35.1 km) ESE. Retrieved 2020/06/04 06:31 UTC (4 hours ago):

TAF MRLM 040500Z 0406/0506 25004KT 9999 FEW020 BKN100 TX30/0420Z TN22/0411Z TEMPO 0408/0414 DZ BECMG 0415/0417 07005KT TEMPO 0421/0501 RA BECMG 0502/0504 26003KT